createdAt,value
2023-05-04T00:00:25.554Z,2.80
2023-05-04T00:00:58.282Z,2.67
2023-05-04T00:01:33.340Z,2.90
2023-05-04T00:02:05.669Z,2.40
2023-05-04T00:02:40.654Z,2.33
2023-05-04T00:03:13.206Z,2.80
2023-05-04T00:03:46.011Z,2.70
2023-05-04T00:04:21.239Z,2.60
2023-05-04T00:04:54.277Z,3.00
2023-05-04T00:05:26.934Z,2.60
2023-05-04T00:06:04.540Z,2.43
2023-05-04T00:06:36.875Z,3.03
2023-05-04T00:07:09.258Z,2.70
2023-05-04T00:07:41.883Z,3.20
2023-05-04T00:08:16.812Z,2.17
2023-05-04T00:08:49.140Z,2.80
2023-05-04T00:09:21.538Z,3.00
2023-05-04T00:09:56.498Z,2.40
2023-05-04T00:10:28.856Z,2.60
2023-05-04T00:11:01.223Z,2.87
2023-05-04T00:11:36.217Z,2.63
2023-05-04T00:12:08.646Z,2.70
2023-05-04T00:12:41.660Z,2.73
2023-05-04T00:13:16.934Z,2.80
2023-05-04T00:13:49.282Z,2.33
2023-05-04T00:14:21.627Z,3.23
2023-05-04T00:14:56.561Z,3.00
2023-05-04T00:15:30.542Z,2.60
2023-05-04T00:16:03.141Z,2.97
2023-05-04T00:16:38.284Z,2.93
2023-05-04T00:17:11.329Z,2.67
2023-05-04T00:17:43.703Z,3.07
2023-05-04T00:18:18.721Z,3.00
2023-05-04T00:18:51.072Z,3.20
2023-05-04T00:19:23.483Z,2.97
2023-05-04T00:19:55.844Z,3.10
2023-05-04T00:20:30.773Z,3.23
2023-05-04T00:21:05.779Z,2.60
2023-05-04T00:21:38.149Z,2.60
2023-05-04T00:22:13.120Z,3.00
2023-05-04T00:22:45.455Z,2.40
2023-05-04T00:23:17.857Z,2.60
2023-05-04T00:23:52.808Z,2.73
2023-05-04T00:24:25.142Z,2.80
2023-05-04T00:24:57.482Z,2.43
2023-05-04T00:25:32.601Z,2.23
2023-05-04T00:26:05.087Z,2.60
2023-05-04T00:26:37.494Z,2.40
2023-05-04T00:27:13.161Z,2.70
2023-05-04T00:27:45.573Z,2.27
2023-05-04T00:28:17.935Z,2.47
2023-05-04T00:28:50.381Z,2.83
2023-05-04T00:29:25.355Z,2.30
2023-05-04T00:29:57.687Z,2.70
2023-05-04T00:30:30.076Z,2.80
2023-05-04T00:31:05.302Z,2.90
2023-05-04T00:31:37.752Z,2.70
2023-05-04T00:32:10.421Z,2.60
2023-05-04T00:32:45.442Z,2.70
2023-05-04T00:33:18.067Z,2.90
2023-05-04T00:33:50.650Z,2.60
2023-05-04T00:34:25.631Z,2.97
2023-05-04T00:34:58.055Z,2.43
2023-05-04T00:35:31.888Z,2.90
2023-05-04T00:36:09.988Z,2.70
2023-05-04T00:36:42.914Z,3.07
2023-05-04T00:37:15.306Z,2.73
2023-05-04T00:37:50.292Z,2.77
2023-05-04T00:38:22.638Z,2.80
2023-05-04T00:38:55.737Z,3.10
2023-05-04T00:39:31.212Z,2.70
2023-05-04T00:40:03.998Z,2.43
2023-05-04T00:40:36.764Z,2.50
2023-05-04T00:41:11.789Z,2.90
2023-05-04T00:41:44.757Z,2.50
2023-05-04T00:42:19.719Z,2.57
2023-05-04T00:42:52.088Z,3.13
2023-05-04T00:43:24.446Z,2.50
2023-05-04T00:43:59.965Z,3.10
2023-05-04T00:44:34.758Z,2.50
2023-05-04T00:45:09.115Z,2.53
2023-05-04T00:45:44.253Z,2.30
2023-05-04T00:46:16.767Z,2.73
2023-05-04T00:46:49.155Z,2.60
2023-05-04T00:47:24.728Z,2.97
2023-05-04T00:47:57.493Z,2.47
2023-05-04T00:48:30.054Z,2.80
2023-05-04T00:49:05.132Z,3.10
2023-05-04T00:49:37.544Z,2.90
2023-05-04T00:50:11.821Z,2.80
2023-05-04T00:50:47.052Z,2.30
2023-05-04T00:51:24.257Z,2.30
2023-05-04T00:51:57.610Z,2.30
2023-05-04T00:52:32.749Z,2.37
2023-05-04T00:53:08.914Z,2.83
2023-05-04T00:53:41.822Z,2.50
2023-05-04T00:54:17.982Z,2.77
2023-05-04T00:54:50.357Z,2.87
2023-05-04T00:55:22.792Z,2.50
2023-05-04T00:55:57.821Z,2.47
2023-05-04T00:56:30.564Z,2.60
2023-05-04T00:57:03.799Z,2.13
2023-05-04T00:57:38.742Z,2.53
2023-05-04T00:58:11.112Z,2.73
2023-05-04T00:58:43.676Z,2.50
2023-05-04T00:59:18.620Z,2.70
2023-05-04T00:59:50.959Z,2.90
2023-05-04T01:00:23.555Z,2.63
2023-05-04T01:00:58.570Z,3.10
2023-05-04T01:01:31.203Z,2.67
2023-05-04T01:02:03.616Z,2.70
2023-05-04T01:02:38.601Z,2.50
2023-05-04T01:03:11.282Z,2.50
2023-05-04T01:03:43.789Z,2.40
2023-05-04T01:04:19.022Z,3.20
2023-05-04T01:04:51.405Z,3.10
2023-05-04T01:05:27.363Z,2.40
2023-05-04T01:06:09.204Z,2.63
2023-05-04T01:06:48.730Z,2.50
2023-05-04T01:07:29.909Z,2.10
2023-05-04T01:08:05.382Z,2.67
2023-05-04T01:08:41.877Z,2.40
2023-05-04T01:09:24.101Z,2.40
2023-05-04T01:10:02.617Z,2.70
2023-05-04T01:10:40.850Z,2.80
2023-05-04T01:11:21.981Z,2.77
2023-05-04T01:11:59.419Z,2.50
2023-05-04T01:12:37.090Z,2.37
2023-05-04T01:13:14.764Z,2.63
2023-05-04T01:13:48.310Z,2.60
2023-05-04T01:14:21.701Z,2.33
2023-05-04T01:14:57.850Z,2.30
2023-05-04T01:15:30.597Z,2.23
2023-05-04T01:16:03.261Z,2.53
2023-05-04T01:16:35.683Z,2.30
2023-05-04T01:17:11.262Z,2.53
2023-05-04T01:17:44.295Z,2.43
2023-05-04T01:18:16.847Z,2.40
2023-05-04T01:18:52.002Z,2.70
2023-05-04T01:19:24.374Z,2.43
2023-05-04T01:19:56.722Z,2.57
2023-05-04T01:20:34.398Z,2.60
2023-05-04T01:21:07.982Z,2.20
2023-05-04T01:21:43.020Z,2.33
2023-05-04T01:22:17.969Z,2.33
2023-05-04T01:22:50.414Z,2.90
2023-05-04T01:23:26.492Z,2.30
2023-05-04T01:24:01.722Z,2.93
2023-05-04T01:24:34.220Z,2.53
2023-05-04T01:25:08.251Z,2.60
2023-05-04T01:25:47.608Z,2.43
2023-05-04T01:26:25.748Z,2.53
2023-05-04T01:27:03.952Z,2.23
2023-05-04T01:27:43.652Z,2.17
2023-05-04T01:28:20.211Z,2.60
2023-05-04T01:28:57.480Z,2.63
2023-05-04T01:29:36.292Z,3.10
2023-05-04T01:30:13.734Z,2.70
2023-05-04T01:30:49.936Z,2.80
2023-05-04T01:31:26.465Z,2.33
2023-05-04T01:31:59.969Z,2.77
2023-05-04T01:32:33.296Z,2.50
2023-05-04T01:33:08.714Z,2.57
2023-05-04T01:33:43.912Z,2.93
2023-05-04T01:34:17.083Z,2.67
2023-05-04T01:34:52.234Z,2.83
2023-05-04T01:35:24.657Z,2.60
2023-05-04T01:35:57.198Z,2.53
2023-05-04T01:36:34.062Z,2.67
2023-05-04T01:37:09.280Z,2.40
2023-05-04T01:37:42.127Z,2.40
2023-05-04T01:38:17.134Z,2.40
2023-05-04T01:38:49.777Z,2.80
2023-05-04T01:39:22.190Z,2.30
2023-05-04T01:39:54.522Z,2.83
2023-05-04T01:40:29.478Z,2.23
2023-05-04T01:41:02.069Z,2.60
2023-05-04T01:41:34.724Z,2.60
2023-05-04T01:42:10.210Z,2.53
2023-05-04T01:42:42.639Z,2.33
2023-05-04T01:43:16.474Z,2.53
2023-05-04T01:43:51.420Z,2.27
2023-05-04T01:44:23.759Z,2.40
2023-05-04T01:44:56.879Z,2.53
2023-05-04T01:45:32.026Z,2.40
2023-05-04T01:46:04.464Z,2.47
2023-05-04T01:46:38.084Z,2.40
2023-05-04T01:47:14.658Z,2.37
2023-05-04T01:47:47.104Z,2.53
2023-05-04T01:48:19.479Z,2.40
2023-05-04T01:48:54.407Z,2.60
2023-05-04T01:49:28.046Z,2.87
2023-05-04T01:50:00.466Z,2.43
2023-05-04T01:50:35.493Z,2.50
2023-05-04T01:51:07.979Z,2.30
2023-05-04T01:51:40.396Z,2.67
2023-05-04T01:52:17.928Z,2.33
2023-05-04T01:52:50.951Z,2.80
2023-05-04T01:53:23.324Z,2.50
2023-05-04T01:53:58.262Z,2.43
2023-05-04T01:54:30.604Z,2.80
2023-05-04T01:55:03.202Z,2.27
2023-05-04T01:55:40.112Z,2.37
2023-05-04T01:56:14.236Z,2.67
2023-05-04T01:56:46.803Z,2.43
2023-05-04T01:57:21.829Z,2.70
2023-05-04T01:57:54.212Z,2.87
2023-05-04T01:58:26.637Z,2.30
2023-05-04T01:59:01.762Z,2.30
2023-05-04T01:59:34.145Z,2.13
2023-05-04T02:00:08.181Z,2.23
2023-05-04T02:00:52.904Z,2.20
2023-05-04T02:01:25.297Z,2.20
2023-05-04T02:01:57.746Z,2.80
2023-05-04T02:02:34.607Z,2.80
2023-05-04T02:03:07.340Z,2.40
2023-05-04T02:03:40.032Z,2.80
2023-05-04T02:04:15.025Z,2.20
2023-05-04T02:04:47.359Z,2.53
2023-05-04T02:05:19.740Z,2.83
2023-05-04T02:05:54.761Z,2.33
2023-05-04T02:06:27.129Z,2.10
2023-05-04T02:06:59.501Z,2.33
2023-05-04T02:07:34.427Z,2.30
2023-05-04T02:08:09.601Z,2.10
2023-05-04T02:08:41.937Z,2.80
2023-05-04T02:09:14.595Z,2.60
2023-05-04T02:09:49.557Z,2.50
2023-05-04T02:10:22.071Z,2.70
2023-05-04T02:10:54.462Z,2.40
2023-05-04T02:11:26.823Z,2.40
2023-05-04T02:12:01.940Z,2.30
2023-05-04T02:12:34.413Z,2.20
2023-05-04T02:13:06.824Z,2.47
2023-05-04T02:13:42.341Z,2.70
2023-05-04T02:14:14.696Z,2.10
2023-05-04T02:14:47.057Z,2.27
2023-05-04T02:15:22.136Z,2.00
2023-05-04T02:15:54.604Z,2.20
2023-05-04T02:16:27.072Z,2.20
2023-05-04T02:17:02.138Z,2.20
2023-05-04T02:17:34.517Z,2.47
2023-05-04T02:18:08.155Z,2.00
2023-05-04T02:18:43.155Z,2.50
2023-05-04T02:19:15.519Z,2.50
2023-05-04T02:19:48.243Z,2.90
2023-05-04T02:20:23.312Z,2.47
2023-05-04T02:20:56.079Z,2.57
2023-05-04T02:21:29.742Z,2.03
2023-05-04T02:22:04.709Z,2.40
2023-05-04T02:22:39.703Z,2.30
2023-05-04T02:23:13.037Z,2.60
2023-05-04T02:23:48.024Z,2.37
2023-05-04T02:24:20.392Z,2.33
2023-05-04T02:24:52.782Z,2.30
2023-05-04T02:25:29.170Z,2.40
2023-05-04T02:26:02.026Z,2.30
2023-05-04T02:26:34.389Z,2.23
2023-05-04T02:27:09.365Z,2.57
2023-05-04T02:27:41.763Z,2.43
2023-05-04T02:28:14.198Z,2.47
2023-05-04T02:28:49.464Z,2.10
2023-05-04T02:29:21.946Z,2.57
2023-05-04T02:29:54.437Z,2.33
2023-05-04T02:30:29.662Z,2.67
2023-05-04T02:31:03.589Z,2.57
2023-05-04T02:31:36.170Z,2.30
2023-05-04T02:32:11.149Z,2.20
2023-05-04T02:32:43.556Z,2.80
2023-05-04T02:33:16.038Z,2.40
2023-05-04T02:33:51.004Z,2.30
2023-05-04T02:34:23.351Z,2.40
2023-05-04T02:34:55.678Z,2.70
2023-05-04T02:35:30.711Z,3.03
2023-05-04T02:36:03.215Z,2.73
2023-05-04T02:36:35.612Z,2.30
2023-05-04T02:37:10.592Z,2.50
2023-05-04T02:37:46.003Z,2.67
2023-05-04T02:38:18.331Z,2.77
2023-05-04T02:38:55.046Z,2.87
2023-05-04T02:39:27.402Z,2.43
2023-05-04T02:40:00.179Z,2.20
2023-05-04T02:40:35.217Z,2.90
2023-05-04T02:41:07.593Z,2.50
2023-05-04T02:41:39.975Z,2.90
2023-05-04T02:42:15.251Z,3.10
2023-05-04T02:42:47.567Z,3.30
2023-05-04T02:43:19.921Z,3.00
2023-05-04T02:43:54.880Z,2.30
2023-05-04T02:44:27.231Z,2.97
2023-05-04T02:44:59.568Z,2.70
2023-05-04T02:45:34.550Z,3.00
2023-05-04T02:46:07.026Z,2.77
2023-05-04T02:46:39.376Z,2.70
2023-05-04T02:47:14.308Z,2.90
2023-05-04T02:47:46.690Z,2.97
2023-05-04T02:48:19.096Z,2.77
2023-05-04T02:48:54.048Z,2.60
2023-05-04T02:49:26.477Z,3.10
2023-05-04T02:49:58.846Z,2.80
2023-05-04T02:50:34.029Z,2.47
2023-05-04T02:51:06.611Z,3.10
2023-05-04T02:51:38.966Z,2.67
2023-05-04T02:52:13.896Z,2.63
2023-05-04T02:52:48.826Z,2.90
2023-05-04T02:53:21.232Z,2.67
2023-05-04T02:53:56.199Z,3.10
2023-05-04T02:54:28.563Z,3.13
2023-05-04T02:55:02.404Z,3.13
2023-05-04T02:55:37.447Z,3.03
2023-05-04T02:56:09.795Z,2.87
2023-05-04T02:56:42.128Z,3.20
2023-05-04T02:57:14.444Z,2.97
2023-05-04T02:57:49.403Z,2.50
2023-05-04T02:58:21.819Z,2.80
2023-05-04T02:58:54.235Z,2.53
2023-05-04T02:59:26.667Z,3.17
2023-05-04T03:00:01.735Z,2.83
2023-05-04T03:00:34.267Z,3.17
2023-05-04T03:01:06.762Z,2.60
2023-05-04T03:01:41.768Z,2.80
2023-05-04T03:02:14.214Z,3.40
2023-05-04T03:02:46.614Z,3.33
2023-05-04T03:03:21.718Z,2.50
2023-05-04T03:03:54.192Z,2.97
2023-05-04T03:04:27.408Z,2.60
2023-05-04T03:05:02.515Z,3.03
2023-05-04T03:05:34.911Z,2.97
2023-05-04T03:06:07.702Z,2.73
2023-05-04T03:06:42.634Z,2.53
2023-05-04T03:07:14.977Z,2.20
2023-05-04T03:07:50.646Z,2.50
2023-05-04T03:08:25.670Z,3.00
2023-05-04T03:08:58.087Z,2.70
2023-05-04T03:09:30.457Z,2.70
2023-05-04T03:10:07.567Z,2.90
2023-05-04T03:10:40.163Z,2.53
2023-05-04T03:11:12.812Z,2.90
2023-05-04T03:11:47.825Z,2.47
2023-05-04T03:12:20.498Z,2.33
2023-05-04T03:12:52.918Z,2.70
2023-05-04T03:13:28.078Z,3.23
2023-05-04T03:14:00.500Z,3.27
2023-05-04T03:14:33.665Z,2.60
2023-05-04T03:15:10.086Z,3.13
2023-05-04T03:15:42.432Z,2.70
2023-05-04T03:16:15.038Z,2.50
2023-05-04T03:16:50.075Z,2.80
2023-05-04T03:17:22.499Z,3.00
2023-05-04T03:17:56.003Z,3.23
2023-05-04T03:18:31.341Z,3.20
2023-05-04T03:19:04.221Z,3.40
2023-05-04T03:19:36.662Z,3.10
2023-05-04T03:20:13.783Z,2.90
2023-05-04T03:20:47.403Z,2.93
2023-05-04T03:21:23.600Z,3.50
2023-05-04T03:21:58.632Z,3.53
2023-05-04T03:22:30.997Z,3.70
2023-05-04T03:23:06.252Z,3.50
2023-05-04T03:23:38.603Z,3.40
2023-05-04T03:24:13.977Z,3.60
2023-05-04T03:24:46.403Z,3.57
2023-05-04T03:25:19.081Z,3.80
2023-05-04T03:25:51.570Z,4.07
2023-05-04T03:26:26.848Z,3.93
2023-05-04T03:26:59.299Z,3.07
2023-05-04T03:27:31.718Z,4.10
2023-05-04T03:28:07.097Z,3.50
2023-05-04T03:28:39.454Z,3.60
2023-05-04T03:29:12.224Z,4.00
2023-05-04T03:29:48.331Z,3.70
2023-05-04T03:30:20.876Z,3.83
2023-05-04T03:30:53.240Z,3.60
2023-05-04T03:31:29.437Z,3.50
2023-05-04T03:32:02.021Z,4.00
2023-05-04T03:32:34.678Z,3.60
2023-05-04T03:33:09.853Z,3.40
2023-05-04T03:33:42.322Z,3.27
2023-05-04T03:34:15.184Z,3.80
2023-05-04T03:34:50.287Z,4.17
2023-05-04T03:35:24.902Z,3.20
2023-05-04T03:35:59.564Z,3.40
2023-05-04T03:36:34.562Z,3.77
2023-05-04T03:37:08.248Z,3.23
2023-05-04T03:37:40.909Z,3.60
2023-05-04T03:38:18.434Z,3.50
2023-05-04T03:38:51.548Z,3.60
2023-05-04T03:39:24.596Z,4.67
2023-05-04T03:39:56.940Z,4.40
2023-05-04T03:40:32.072Z,4.53
2023-05-04T03:41:04.398Z,4.47
2023-05-04T03:41:36.836Z,4.20
2023-05-04T03:42:12.213Z,4.53
2023-05-04T03:42:44.640Z,3.90
2023-05-04T03:43:16.996Z,3.90
2023-05-04T03:43:52.097Z,4.50
2023-05-04T03:44:25.183Z,4.60
2023-05-04T03:44:57.812Z,4.57
2023-05-04T03:45:32.956Z,4.13
2023-05-04T03:46:05.881Z,4.83
2023-05-04T03:46:38.348Z,4.70
2023-05-04T03:47:13.782Z,4.13
2023-05-04T03:47:46.313Z,4.10
2023-05-04T03:48:18.826Z,4.30
2023-05-04T03:48:53.843Z,4.50
2023-05-04T03:49:26.390Z,5.00
2023-05-04T03:49:58.750Z,4.57
2023-05-04T03:50:34.767Z,4.40
2023-05-04T03:51:07.279Z,4.20
2023-05-04T03:51:39.654Z,3.87
2023-05-04T03:52:16.209Z,4.07
2023-05-04T03:52:49.822Z,4.07
2023-05-04T03:53:27.364Z,3.97
2023-05-04T03:54:02.335Z,3.80
2023-05-04T03:54:34.699Z,4.63
2023-05-04T03:55:08.344Z,3.87
2023-05-04T03:55:43.300Z,4.17
2023-05-04T03:56:15.828Z,4.33
2023-05-04T03:56:48.170Z,4.03
2023-05-04T03:57:25.436Z,3.80
2023-05-04T03:57:59.897Z,4.07
2023-05-04T03:58:33.113Z,4.33
2023-05-04T03:59:11.210Z,4.20
2023-05-04T03:59:43.638Z,3.90
2023-05-04T04:00:17.562Z,4.10
2023-05-04T04:01:01.427Z,4.00
2023-05-04T04:01:33.824Z,3.97
2023-05-04T04:02:06.224Z,4.37
2023-05-04T04:02:41.377Z,3.97
2023-05-04T04:03:21.450Z,3.60
2023-05-04T04:03:54.137Z,4.07
2023-05-04T04:04:29.348Z,4.70
2023-05-04T04:05:03.191Z,4.20
2023-05-04T04:05:35.591Z,3.97
2023-05-04T04:06:13.531Z,4.37
2023-05-04T04:06:46.753Z,4.70
2023-05-04T04:07:19.291Z,3.90
2023-05-04T04:07:54.241Z,4.10
2023-05-04T04:08:29.284Z,3.70
2023-05-04T04:09:01.616Z,4.40
2023-05-04T04:09:38.588Z,4.40
2023-05-04T04:10:11.433Z,4.50
2023-05-04T04:10:43.822Z,4.67
2023-05-04T04:11:18.752Z,4.50
2023-05-04T04:11:51.086Z,4.33
2023-05-04T04:12:23.465Z,4.60
2023-05-04T04:12:58.469Z,4.40
2023-05-04T04:13:30.879Z,4.40
2023-05-04T04:14:03.289Z,4.80
2023-05-04T04:14:38.229Z,4.37
2023-05-04T04:15:11.560Z,3.93
2023-05-04T04:15:47.060Z,4.50
2023-05-04T04:16:20.783Z,4.10
2023-05-04T04:16:53.189Z,4.03
2023-05-04T04:17:28.247Z,4.40
2023-05-04T04:18:00.693Z,4.43
2023-05-04T04:18:33.257Z,4.23
2023-05-04T04:19:08.242Z,4.27
2023-05-04T04:19:40.762Z,4.10
2023-05-04T04:20:14.162Z,3.60
2023-05-04T04:20:49.342Z,4.27
2023-05-04T04:21:21.675Z,4.40
2023-05-04T04:21:54.000Z,4.40
2023-05-04T04:22:29.284Z,4.47
2023-05-04T04:23:01.698Z,4.67
2023-05-04T04:23:36.716Z,4.30
2023-05-04T04:24:11.663Z,4.20
2023-05-04T04:24:43.984Z,4.40
2023-05-04T04:25:16.368Z,3.87
2023-05-04T04:25:51.448Z,4.20
2023-05-04T04:26:23.793Z,3.93
2023-05-04T04:26:56.251Z,4.13
2023-05-04T04:27:31.181Z,4.50
2023-05-04T04:28:03.893Z,4.37
2023-05-04T04:28:36.375Z,4.43
2023-05-04T04:29:12.420Z,4.93
2023-05-04T04:29:44.774Z,4.67
2023-05-04T04:30:17.374Z,4.20
2023-05-04T04:30:52.339Z,4.40
2023-05-04T04:31:24.714Z,4.33
2023-05-04T04:31:57.072Z,4.33
2023-05-04T04:32:32.342Z,4.10
2023-05-04T04:33:05.181Z,4.10
2023-05-04T04:33:37.548Z,4.40
2023-05-04T04:34:12.494Z,4.70
2023-05-04T04:34:45.173Z,4.20
2023-05-04T04:35:17.514Z,4.27
2023-05-04T04:35:53.335Z,4.43
2023-05-04T04:36:25.981Z,4.30
2023-05-04T04:36:59.048Z,4.13
2023-05-04T04:37:34.034Z,4.40
2023-05-04T04:38:07.200Z,4.33
2023-05-04T04:38:42.144Z,4.50
2023-05-04T04:39:17.267Z,3.70
2023-05-04T04:39:49.820Z,3.97
2023-05-04T04:40:22.773Z,3.93
2023-05-04T04:40:57.763Z,4.17
2023-05-04T04:41:30.105Z,4.27
2023-05-04T04:42:03.028Z,4.80
2023-05-04T04:42:37.985Z,3.80
2023-05-04T04:43:11.419Z,3.97
2023-05-04T04:43:43.899Z,4.30
2023-05-04T04:44:18.824Z,3.63
2023-05-04T04:44:52.502Z,3.90
2023-05-04T04:45:25.051Z,4.23
2023-05-04T04:45:59.990Z,4.13
2023-05-04T04:46:32.508Z,4.20
2023-05-04T04:47:04.927Z,3.67
2023-05-04T04:47:37.849Z,3.70
2023-05-04T04:48:13.053Z,3.97
2023-05-04T04:48:45.416Z,4.10
2023-05-04T04:49:18.117Z,4.00
2023-05-04T04:49:53.106Z,3.90
2023-05-04T04:50:25.487Z,3.70
2023-05-04T04:50:57.821Z,3.80
2023-05-04T04:51:32.893Z,4.10
2023-05-04T04:52:06.149Z,3.63
2023-05-04T04:52:38.652Z,4.00
2023-05-04T04:53:14.415Z,4.30
2023-05-04T04:53:49.372Z,3.90
2023-05-04T04:54:21.731Z,3.93
2023-05-04T04:54:56.964Z,4.13
2023-05-04T04:55:29.398Z,4.10
2023-05-04T04:56:04.318Z,3.93
2023-05-04T04:56:37.904Z,3.80
2023-05-04T04:57:10.533Z,4.03
2023-05-04T04:57:45.502Z,4.13
2023-05-04T04:58:17.818Z,4.03
2023-05-04T04:58:51.084Z,4.30
2023-05-04T04:59:26.535Z,4.00
2023-05-04T04:59:58.903Z,3.73
2023-05-04T05:00:31.235Z,4.10
2023-05-04T05:01:08.400Z,4.07
2023-05-04T05:01:42.951Z,4.13
2023-05-04T05:02:15.390Z,4.17
2023-05-04T05:02:50.462Z,3.80
2023-05-04T05:03:22.860Z,4.17
2023-05-04T05:03:55.184Z,3.80
2023-05-04T05:04:30.140Z,4.43
2023-05-04T05:05:02.676Z,4.57
2023-05-04T05:05:35.112Z,3.90
2023-05-04T05:06:10.865Z,4.83
2023-05-04T05:06:43.710Z,5.03
2023-05-04T05:07:16.715Z,5.00
2023-05-04T05:07:51.672Z,4.80
2023-05-04T05:08:24.132Z,5.43
2023-05-04T05:08:59.102Z,4.90
2023-05-04T05:09:34.039Z,5.40
2023-05-04T05:10:08.738Z,5.43
2023-05-04T05:10:44.209Z,5.33
2023-05-04T05:11:16.757Z,5.67
2023-05-04T05:11:49.090Z,5.23
2023-05-04T05:12:24.051Z,5.17
2023-05-04T05:12:56.465Z,5.10
2023-05-04T05:13:28.829Z,5.57
2023-05-04T05:14:03.755Z,6.10
2023-05-04T05:14:36.181Z,5.50
2023-05-04T05:15:09.752Z,5.90
2023-05-04T05:15:44.733Z,5.20
2023-05-04T05:16:17.109Z,6.00
2023-05-04T05:16:49.583Z,5.90
2023-05-04T05:17:24.715Z,5.37
2023-05-04T05:17:57.271Z,6.20
2023-05-04T05:18:32.452Z,5.53
2023-05-04T05:19:04.849Z,4.97
2023-05-04T05:19:37.494Z,5.50
2023-05-04T05:20:14.159Z,5.60
2023-05-04T05:20:46.487Z,6.10
2023-05-04T05:21:22.168Z,6.30
2023-05-04T05:21:54.489Z,6.27
2023-05-04T05:22:26.843Z,6.00
2023-05-04T05:23:01.858Z,6.10
2023-05-04T05:23:34.217Z,6.13
2023-05-04T05:24:09.309Z,6.33
2023-05-04T05:24:44.275Z,6.23
2023-05-04T05:25:16.686Z,6.33
2023-05-04T05:25:49.040Z,6.10
2023-05-04T05:26:24.995Z,6.87
2023-05-04T05:26:58.282Z,6.50
2023-05-04T05:27:30.659Z,6.20
2023-05-04T05:28:05.725Z,5.97
2023-05-04T05:28:38.179Z,6.60
2023-05-04T05:29:10.494Z,6.20
2023-05-04T05:29:45.822Z,6.00
2023-05-04T05:30:18.396Z,5.90
2023-05-04T05:30:52.540Z,6.43
2023-05-04T05:31:27.876Z,6.57
2023-05-04T05:32:00.289Z,6.00
2023-05-04T05:32:32.844Z,6.10
2023-05-04T05:33:07.953Z,6.20
2023-05-04T05:33:41.191Z,5.60
2023-05-04T05:34:13.539Z,6.53
2023-05-04T05:34:48.576Z,6.17
2023-05-04T05:35:21.299Z,5.80
2023-05-04T05:35:54.276Z,6.97
2023-05-04T05:36:29.268Z,6.67
2023-05-04T05:37:01.672Z,5.70
2023-05-04T05:37:34.133Z,6.07
2023-05-04T05:38:09.096Z,6.50
2023-05-04T05:38:41.440Z,6.03
2023-05-04T05:39:16.472Z,6.53
2023-05-04T05:39:51.433Z,6.60
2023-05-04T05:40:23.849Z,6.70
2023-05-04T05:40:56.375Z,6.97
2023-05-04T05:41:31.324Z,6.50
2023-05-04T05:42:03.928Z,5.90
2023-05-04T05:42:36.309Z,6.53
2023-05-04T05:43:11.394Z,6.40
2023-05-04T05:43:43.728Z,6.43
2023-05-04T05:44:16.058Z,6.23
2023-05-04T05:44:51.281Z,6.70
2023-05-04T05:45:23.621Z,6.83
2023-05-04T05:45:56.477Z,6.50
2023-05-04T05:46:31.567Z,6.87
2023-05-04T05:47:03.999Z,6.57
2023-05-04T05:47:37.018Z,5.80
2023-05-04T05:48:12.064Z,7.03
2023-05-04T05:48:44.484Z,6.13
2023-05-04T05:49:16.857Z,7.07
2023-05-04T05:49:51.788Z,7.80
2023-05-04T05:50:24.732Z,6.50
2023-05-04T05:50:57.070Z,6.77
2023-05-04T05:51:31.992Z,6.77
2023-05-04T05:52:04.769Z,6.60
2023-05-04T05:52:37.081Z,6.70
2023-05-04T05:53:12.016Z,6.37
2023-05-04T05:53:45.129Z,7.13
2023-05-04T05:54:23.528Z,6.60
2023-05-04T05:54:55.949Z,6.63
2023-05-04T05:55:30.883Z,6.40
2023-05-04T05:56:03.262Z,6.20
2023-05-04T05:56:35.721Z,6.50
2023-05-04T05:57:10.639Z,7.50
2023-05-04T05:57:42.985Z,6.90
2023-05-04T05:58:18.079Z,6.50
2023-05-04T05:58:51.636Z,6.87
2023-05-04T05:59:24.094Z,6.77
2023-05-04T05:59:59.602Z,6.70
2023-05-04T06:00:31.980Z,6.93
2023-05-04T06:01:04.317Z,5.90
2023-05-04T06:01:39.279Z,6.93
2023-05-04T06:02:14.887Z,6.83
2023-05-04T06:02:47.415Z,6.90
2023-05-04T06:03:22.762Z,6.27
2023-05-04T06:03:55.470Z,6.60
2023-05-04T06:04:30.623Z,6.50
2023-05-04T06:05:03.175Z,6.37
2023-05-04T06:05:38.337Z,6.23
2023-05-04T06:06:10.865Z,6.20
2023-05-04T06:06:45.147Z,6.13
2023-05-04T06:07:22.172Z,6.77
2023-05-04T06:07:54.505Z,6.43
2023-05-04T06:08:29.516Z,6.00
2023-05-04T06:09:01.861Z,6.43
2023-05-04T06:09:36.955Z,6.20
2023-05-04T06:10:12.568Z,6.57
2023-05-04T06:10:44.965Z,6.10
2023-05-04T06:11:19.987Z,5.90
2023-05-04T06:11:54.742Z,6.57
2023-05-04T06:12:30.504Z,6.40
2023-05-04T06:13:02.908Z,6.53
2023-05-04T06:13:37.857Z,5.43
2023-05-04T06:14:10.188Z,6.40
2023-05-04T06:14:42.530Z,6.37
2023-05-04T06:15:17.826Z,6.43
2023-05-04T06:15:53.169Z,6.20
2023-05-04T06:16:28.299Z,6.30
2023-05-04T06:17:00.656Z,6.00
2023-05-04T06:17:35.608Z,6.50
2023-05-04T06:18:08.070Z,6.57
2023-05-04T06:18:43.071Z,6.10
2023-05-04T06:19:15.435Z,6.13
2023-05-04T06:20:02.392Z,6.30
2023-05-04T06:20:37.734Z,6.20
2023-05-04T06:21:10.317Z,5.50
2023-05-04T06:21:42.647Z,6.70
2023-05-04T06:22:17.626Z,6.00
2023-05-04T06:22:49.978Z,6.23
2023-05-04T06:23:25.822Z,6.27
2023-05-04T06:23:58.151Z,5.70
2023-05-04T06:24:33.111Z,5.13
2023-05-04T06:25:08.891Z,6.13
2023-05-04T06:25:41.327Z,6.63
2023-05-04T06:26:16.275Z,6.50
2023-05-04T06:26:48.685Z,6.17
2023-05-04T06:27:22.349Z,5.77
2023-05-04T06:27:59.077Z,5.93
2023-05-04T06:28:31.422Z,5.80
2023-05-04T06:29:03.786Z,6.17
2023-05-04T06:29:40.532Z,6.10
2023-05-04T06:30:14.228Z,5.30
2023-05-04T06:30:49.200Z,6.10
2023-05-04T06:31:21.599Z,6.23
2023-05-04T06:31:54.158Z,5.80
2023-05-04T06:32:29.220Z,6.00
2023-05-04T06:33:01.830Z,5.87
2023-05-04T06:33:34.374Z,6.33
2023-05-04T06:34:09.349Z,6.00
2023-05-04T06:34:41.685Z,6.10
2023-05-04T06:35:14.242Z,6.20
2023-05-04T06:35:49.251Z,6.43
2023-05-04T06:36:22.039Z,6.30
2023-05-04T06:36:54.369Z,6.53
2023-05-04T06:37:29.428Z,5.70
2023-05-04T06:38:01.893Z,6.03
2023-05-04T06:38:38.847Z,6.20
2023-05-04T06:39:11.883Z,6.03
2023-05-04T06:39:44.219Z,5.83
2023-05-04T06:40:21.974Z,6.60
2023-05-04T06:40:54.404Z,5.30
2023-05-04T06:41:29.464Z,5.93
2023-05-04T06:42:01.875Z,6.30
2023-05-04T06:42:39.962Z,5.77
2023-05-04T06:43:14.890Z,6.03
2023-05-04T06:43:47.232Z,5.80
2023-05-04T06:44:19.566Z,6.07
2023-05-04T06:44:54.515Z,5.63
2023-05-04T06:45:26.887Z,5.30
2023-05-04T06:46:04.718Z,5.87
2023-05-04T06:46:37.573Z,5.80
2023-05-04T06:47:09.918Z,6.00
2023-05-04T06:47:44.918Z,6.37
2023-05-04T06:48:18.609Z,6.03
2023-05-04T06:48:50.959Z,5.63
2023-05-04T06:49:25.928Z,6.00
2023-05-04T06:49:58.508Z,5.93
2023-05-04T06:50:33.850Z,6.10
2023-05-04T06:51:06.781Z,5.80
2023-05-04T06:51:39.708Z,5.47
2023-05-04T06:52:14.690Z,5.90
2023-05-04T06:52:47.208Z,5.70
2023-05-04T06:53:19.539Z,5.77
2023-05-04T06:53:54.777Z,5.90
2023-05-04T06:54:27.746Z,5.53
2023-05-04T06:55:02.854Z,5.80
2023-05-04T06:55:38.284Z,5.60
2023-05-04T06:56:13.242Z,6.00
2023-05-04T06:56:45.630Z,5.80
2023-05-04T06:57:17.970Z,6.40
2023-05-04T06:57:54.244Z,5.50
2023-05-04T06:58:26.753Z,5.50
2023-05-04T06:58:59.139Z,6.13
2023-05-04T06:59:34.065Z,5.63
2023-05-04T07:00:08.735Z,5.33
2023-05-04T07:00:45.041Z,5.43
2023-05-04T07:01:18.505Z,6.10
2023-05-04T07:01:51.266Z,5.90
2023-05-04T07:02:26.362Z,5.83
2023-05-04T07:02:58.826Z,5.53
2023-05-04T07:03:31.225Z,5.63
2023-05-04T07:04:06.843Z,5.83
2023-05-04T07:04:39.351Z,6.20
2023-05-04T07:05:11.713Z,5.10
2023-05-04T07:05:48.904Z,5.27
2023-05-04T07:06:21.415Z,5.10
2023-05-04T07:06:53.931Z,5.57
2023-05-04T07:07:28.862Z,5.73
2023-05-04T07:08:01.400Z,5.37
2023-05-04T07:08:36.374Z,6.13
2023-05-04T07:09:08.909Z,6.10
2023-05-04T07:09:41.927Z,5.80
2023-05-04T07:10:16.979Z,5.63
2023-05-04T07:10:52.020Z,5.40
2023-05-04T07:11:25.083Z,5.00
2023-05-04T07:12:00.034Z,5.30
2023-05-04T07:12:32.478Z,5.97
2023-05-04T07:13:04.879Z,5.43
2023-05-04T07:13:39.920Z,5.40
2023-05-04T07:14:12.380Z,5.47
2023-05-04T07:14:44.723Z,5.13
2023-05-04T07:15:19.685Z,4.73
2023-05-04T07:15:52.227Z,4.70
2023-05-04T07:16:27.238Z,5.30
2023-05-04T07:17:00.728Z,5.17
2023-05-04T07:17:35.787Z,5.33
2023-05-04T07:18:08.363Z,5.53
2023-05-04T07:18:43.342Z,5.50
2023-05-04T07:19:15.709Z,5.13
2023-05-04T07:19:50.184Z,5.13
2023-05-04T07:20:26.490Z,5.27
2023-05-04T07:21:10.747Z,5.13
2023-05-04T07:21:43.554Z,5.23
2023-05-04T07:22:18.556Z,5.33
2023-05-04T07:22:55.214Z,5.30
2023-05-04T07:23:30.250Z,5.73
2023-05-04T07:24:02.616Z,5.37
2023-05-04T07:24:34.937Z,4.53
2023-05-04T07:25:10.525Z,4.90
2023-05-04T07:25:44.272Z,5.20
2023-05-04T07:26:22.040Z,4.57
2023-05-04T07:26:54.365Z,5.47
2023-05-04T07:27:29.363Z,5.57
2023-05-04T07:28:01.778Z,5.00
2023-05-04T07:28:36.793Z,5.10
2023-05-04T07:29:09.886Z,4.50
2023-05-04T07:29:44.807Z,4.83
2023-05-04T07:30:17.287Z,5.13
2023-05-04T07:30:52.257Z,4.50
2023-05-04T07:31:24.643Z,4.67